Time;durP1;ratioP1;P1;durP2;ratioP2;P2;SDS_P1;SDS_P2;PMS_P1;PMS_P2;Temp;Humidity;BMP_temperature;BMP_pressure;BME280_temperature;BME280_humidity;BME280_pressure;Samples;Min_cycle;Max_cycle;Signal;HPM_P1;HPM_P2
2022/04/05 00:01:23;;;;;;;8.93;3.60;;;5.80;99.90;;;;;;5067932;28;20387;-82
2022/04/05 00:03:48;;;;;;;7.32;3.08;;;5.80;99.90;;;;;;5052843;28;20392;-83
2022/04/05 00:06:14;;;;;;;8.63;3.30;;;5.80;99.90;;;;;;5051351;28;20768;-82
2022/04/05 00:08:39;;;;;;;9.43;3.35;;;5.80;99.90;;;;;;5051978;28;20401;-83
2022/04/05 00:11:05;;;;;;;7.43;3.10;;;5.70;99.90;;;;;;5068401;28;20383;-82
2022/04/05 00:13:31;;;;;;;7.90;2.97;;;5.70;99.90;;;;;;5067816;28;20947;-82
2022/04/05 00:15:56;;;;;;;7.32;2.85;;;5.70;99.90;;;;;;5052506;28;20388;-82
2022/04/05 00:18:22;;;;;;;9.95;3.22;;;5.80;99.90;;;;;;5053226;28;20425;-83
2022/04/05 00:20:48;;;;;;;8.07;2.80;;;5.90;99.90;;;;;;5052232;28;20372;-84
2022/04/05 00:23:14;;;;;;;6.83;2.83;;;5.90;99.90;;;;;;5067966;28;20395;-83
2022/04/05 00:25:40;;;;;;;7.10;2.90;;;5.90;99.90;;;;;;5069315;28;20396;-83
2022/04/05 00:28:06;;;;;;;5.82;2.55;;;5.90;99.90;;;;;;5053609;28;20413;-83
2022/04/05 00:30:31;;;;;;;7.65;3.10;;;6.00;99.90;;;;;;5069371;28;20869;-83
2022/04/05 00:33:00;;;;;;;7.80;2.90;;;5.90;99.90;;;;;;5053931;28;20405;-83
2022/04/05 00:35:25;;;;;;;6.28;2.60;;;6.00;99.90;;;;;;5069577;28;20458;-82
2022/04/05 00:37:51;;;;;;;5.78;3.10;;;6.00;99.90;;;;;;5054054;28;20917;-83
2022/04/05 00:40:17;;;;;;;7.17;2.97;;;6.00;99.90;;;;;;5053413;28;20384;-82
2022/04/05 00:42:42;;;;;;;5.57;3.07;;;5.90;99.90;;;;;;5053709;28;20435;-83
2022/04/05 00:45:09;;;;;;;8.63;4.00;;;6.00;99.90;;;;;;5051601;28;20494;-82
2022/04/05 00:47:36;;;;;;;6.95;4.05;;;6.00;99.90;;;;;;5068809;28;20372;-83
2022/04/05 00:50:04;;;;;;;8.75;5.07;;;6.00;99.90;;;;;;5054054;28;20380;-83
2022/04/05 00:52:32;;;;;;;12.87;5.57;;;6.00;99.90;;;;;;5052807;28;20445;-83
2022/04/05 00:54:59;;;;;;;10.65;5.00;;;6.00;99.90;;;;;;5052898;28;20494;-83
2022/04/05 00:57:27;;;;;;;10.63;5.25;;;6.10;99.90;;;;;;5052429;28;20388;-83
2022/04/05 00:59:57;;;;;;;10.55;4.45;;;6.10;99.90;;;;;;5067952;28;20387;-82
2022/04/05 01:02:25;;;;;;;8.55;4.93;;;6.10;99.90;;;;;;5054779;28;20475;-83
2022/04/05 01:04:51;;;;;;;13.48;4.85;;;6.20;99.90;;;;;;5067599;28;20399;-83
2022/04/05 01:07:22;;;;;;;12.50;5.00;;;6.20;99.90;;;;;;5052390;28;20383;-81
2022/04/05 01:09:53;;;;;;;11.87;4.37;;;6.10;99.90;;;;;;5050750;28;20415;-82
2022/04/05 01:12:20;;;;;;;12.83;4.33;;;6.00;99.90;;;;;;5052496;28;20383;-83
2022/04/05 01:14:47;;;;;;;14.53;3.77;;;6.00;99.90;;;;;;5052050;28;20445;-82
2022/04/05 01:17:13;;;;;;;12.30;3.75;;;6.10;99.90;;;;;;5066192;28;20931;-82
2022/04/05 01:19:39;;;;;;;13.40;4.15;;;6.10;99.90;;;;;;5051169;28;20375;-82
2022/04/05 01:22:05;;;;;;;10.52;3.40;;;6.10;99.90;;;;;;5050636;28;20371;-82
2022/04/05 01:24:32;;;;;;;12.73;3.40;;;6.10;99.90;;;;;;5050460;28;20526;-83
2022/04/05 01:26:59;;;;;;;12.75;4.05;;;6.00;99.90;;;;;;5051746;28;20387;-83
2022/04/05 01:29:26;;;;;;;11.10;3.63;;;6.00;99.90;;;;;;5052390;28;20392;-82
2022/04/05 01:32:05;;;;;;;12.87;3.80;;;6.00;99.90;;;;;;5052218;28;20404;-82
2022/04/05 01:34:34;;;;;;;12.60;4.20;;;6.00;99.90;;;;;;5068294;28;20517;-82
2022/04/05 01:37:02;;;;;;;14.48;3.97;;;5.90;99.90;;;;;;5052056;28;20379;-83
2022/04/05 01:39:30;;;;;;;8.90;3.78;;;6.00;99.90;;;;;;5069028;28;20877;-82
2022/04/05 01:41:58;;;;;;;13.35;4.22;;;6.00;99.90;;;;;;5058190;28;20442;-82
2022/04/05 01:44:26;;;;;;;12.60;3.95;;;5.90;99.90;;;;;;5074036;28;20415;-83
2022/04/05 01:46:52;;;;;;;12.40;4.00;;;5.90;99.90;;;;;;5057926;28;20404;-82
2022/04/05 01:49:18;;;;;;;8.40;3.60;;;6.00;99.90;;;;;;5057211;28;20816;-82
2022/04/05 01:51:45;;;;;;;10.48;3.90;;;6.10;99.90;;;;;;5057553;28;20386;-82
2022/04/05 01:54:12;;;;;;;9.43;3.67;;;6.00;99.90;;;;;;5072455;28;20387;-82
2022/04/05 01:56:42;;;;;;;9.38;3.42;;;6.00;99.90;;;;;;5056963;28;20386;-82
2022/04/05 01:59:08;;;;;;;12.93;3.80;;;6.00;99.90;;;;;;5058494;28;20392;-82
2022/04/05 02:01:33;;;;;;;8.60;3.40;;;5.90;99.90;;;;;;5057439;28;20723;-82
2022/04/05 02:03:59;;;;;;;9.70;3.87;;;5.90;99.90;;;;;;5058127;28;20399;-82
2022/04/05 02:06:25;;;;;;;13.43;3.47;;;5.90;99.90;;;;;;5073114;28;20384;-82
2022/04/05 02:08:51;;;;;;;8.98;3.50;;;6.00;99.90;;;;;;5057214;28;20379;-82
2022/04/05 02:11:17;;;;;;;9.50;3.15;;;5.90;99.90;;;;;;5072592;28;20375;-82
2022/04/05 02:13:42;;;;;;;12.82;3.80;;;5.90;99.90;;;;;;5072971;28;20731;-82
2022/04/05 02:16:08;;;;;;;11.30;3.57;;;6.00;99.90;;;;;;5057618;28;20959;-82
2022/04/05 02:18:37;;;;;;;10.83;3.20;;;5.90;99.90;;;;;;5057650;28;20463;-82
2022/04/05 02:21:03;;;;;;;12.63;4.00;;;5.80;99.90;;;;;;5057025;28;20419;-82
2022/04/05 02:23:29;;;;;;;9.38;3.55;;;5.80;99.90;;;;;;5072111;28;20395;-82
2022/04/05 02:25:55;;;;;;;14.25;3.50;;;5.70;99.90;;;;;;5072068;28;20379;-82
2022/04/05 02:28:21;;;;;;;10.43;3.80;;;5.70;99.90;;;;;;5057026;28;20731;-82
2022/04/05 02:30:46;;;;;;;12.60;3.90;;;5.70;99.90;;;;;;5073161;28;20873;-83
2022/04/05 02:33:12;;;;;;;9.20;3.23;;;5.70;99.90;;;;;;5055373;28;20383;-82
2022/04/05 02:35:38;;;;;;;12.53;3.90;;;5.80;99.90;;;;;;5072669;28;20379;-81
2022/04/05 02:38:04;;;;;;;11.20;3.50;;;5.80;99.90;;;;;;5056131;28;20379;-82
2022/04/05 02:40:30;;;;;;;11.45;3.70;;;5.70;99.90;;;;;;5056693;28;20371;-82
2022/04/05 02:42:56;;;;;;;10.23;3.47;;;5.80;99.90;;;;;;5056316;28;20395;-82
2022/04/05 02:45:22;;;;;;;10.32;3.08;;;5.80;99.90;;;;;;5057374;28;20392;-82
2022/04/05 02:47:49;;;;;;;9.75;3.40;;;5.80;99.90;;;;;;5073663;28;20382;-82
2022/04/05 02:50:18;;;;;;;11.90;4.03;;;5.70;99.90;;;;;;5057357;28;20391;-82
2022/04/05 02:52:45;;;;;;;13.88;3.88;;;5.70;99.90;;;;;;5055772;28;20395;-82
2022/04/05 02:55:12;;;;;;;9.80;3.40;;;5.70;99.90;;;;;;5055714;28;20773;-83
2022/04/05 02:57:39;;;;;;;9.57;3.70;;;5.70;99.90;;;;;;5070240;28;20375;-82
2022/04/05 03:00:11;;;;;;;11.65;4.20;;;5.70;99.90;;;;;;5053665;28;20398;-82
2022/04/05 03:02:37;;;;;;;12.05;3.85;;;5.70;99.90;;;;;;5069582;28;20940;-82
2022/04/05 03:05:07;;;;;;;10.88;3.65;;;5.80;99.90;;;;;;5053808;28;20475;-82
2022/04/05 03:07:34;;;;;;;11.15;3.85;;;5.70;99.90;;;;;;5068754;28;20399;-82
2022/04/05 03:10:00;;;;;;;11.35;3.88;;;5.70;99.90;;;;;;5069007;28;20407;-82
2022/04/05 03:12:26;;;;;;;11.05;3.72;;;5.70;99.90;;;;;;5054402;28;20383;-82
2022/04/05 03:14:52;;;;;;;10.87;4.23;;;5.80;99.90;;;;;;5070329;28;20456;-83
2022/04/05 03:17:17;;;;;;;12.10;3.67;;;5.70;99.90;;;;;;5054918;28;20383;-81
2022/04/05 03:19:43;;;;;;;13.97;3.57;;;5.80;99.90;;;;;;5055216;28;20426;-82
2022/04/05 03:22:09;;;;;;;12.05;4.10;;;5.90;99.90;;;;;;5053947;28;20379;-83
2022/04/05 03:24:35;;;;;;;13.27;3.83;;;5.80;99.90;;;;;;5069697;28;20548;-82
2022/04/05 03:27:01;;;;;;;13.47;3.93;;;5.80;99.90;;;;;;5053242;28;20783;-82
2022/04/05 03:29:27;;;;;;;10.60;3.80;;;5.70;99.90;;;;;;5054796;28;20379;-83
2022/04/05 03:31:53;;;;;;;10.67;3.30;;;5.70;99.90;;;;;;5053597;28;20440;-82
2022/04/05 03:34:18;;;;;;;15.63;3.80;;;5.60;99.90;;;;;;5055176;28;20414;-82
2022/04/05 03:36:44;;;;;;;11.63;3.83;;;5.60;99.90;;;;;;5068124;28;20423;-82
2022/04/05 03:39:13;;;;;;;13.60;4.40;;;5.60;99.90;;;;;;5054456;28;20388;-82
2022/04/05 03:41:39;;;;;;;12.52;3.75;;;5.60;99.90;;;;;;5069743;28;20396;-82
2022/04/05 03:44:05;;;;;;;12.02;3.78;;;5.70;99.90;;;;;;5055328;28;20446;-82
2022/04/05 03:46:31;;;;;;;12.57;4.07;;;5.60;99.90;;;;;;5054298;28;20392;-82
2022/04/05 03:48:57;;;;;;;12.27;3.93;;;5.60;99.90;;;;;;5071232;28;20746;-82
2022/04/05 03:51:23;;;;;;;14.53;4.20;;;5.60;99.90;;;;;;5054489;28;20932;-82
2022/04/05 03:53:48;;;;;;;13.73;3.70;;;5.60;99.90;;;;;;5054007;28;20382;-83
2022/04/05 03:56:14;;;;;;;11.83;3.93;;;5.60;99.90;;;;;;5053911;28;20367;-82
2022/04/05 03:58:40;;;;;;;10.10;3.63;;;5.60;99.90;;;;;;5054664;28;20395;-83
2022/04/05 04:01:06;;;;;;;9.80;3.78;;;5.60;99.90;;;;;;5054024;28;20399;-83
2022/04/05 04:03:33;;;;;;;14.23;3.60;;;5.70;99.90;;;;;;5054558;28;20412;-83
2022/04/05 04:05:59;;;;;;;13.68;4.18;;;5.50;99.90;;;;;;5054354;28;20870;-82
2022/04/05 04:08:26;;;;;;;9.13;3.80;;;5.50;99.90;;;;;;5054428;28;20440;-82
2022/04/05 04:10:51;;;;;;;12.85;4.28;;;5.60;99.90;;;;;;5054535;28;20376;-82
2022/04/05 04:13:18;;;;;;;12.93;3.93;;;5.60;99.90;;;;;;5070977;28;20870;-82
2022/04/05 04:15:43;;;;;;;11.43;3.50;;;5.50;99.90;;;;;;5054794;28;20384;-83
2022/04/05 04:18:09;;;;;;;10.00;3.23;;;5.40;99.90;;;;;;5055914;28;20376;-82
2022/04/05 04:20:38;;;;;;;11.85;3.58;;;5.50;99.90;;;;;;5054720;28;20380;-82
2022/04/05 04:23:04;;;;;;;13.98;4.22;;;5.50;99.90;;;;;;5068700;28;20389;-82
2022/04/05 04:25:31;;;;;;;11.25;3.88;;;5.60;99.90;;;;;;5053830;28;20368;-82
2022/04/05 04:27:57;;;;;;;13.18;4.40;;;5.50;99.90;;;;;;5068774;28;20395;-82
2022/04/05 04:30:23;;;;;;;11.27;3.95;;;5.40;99.90;;;;;;5052679;28;20417;-82
2022/04/05 04:32:48;;;;;;;11.38;4.15;;;5.40;99.90;;;;;;5052616;28;20421;-82
2022/04/05 04:35:14;;;;;;;12.27;4.20;;;5.50;99.90;;;;;;5052737;28;20374;-82
2022/04/05 04:37:40;;;;;;;13.30;4.50;;;5.50;99.90;;;;;;5052400;28;20394;-82
2022/04/05 04:40:06;;;;;;;13.70;4.70;;;5.50;99.90;;;;;;5067833;28;20376;-82
2022/04/05 04:42:33;;;;;;;13.50;4.03;;;5.50;99.90;;;;;;5052630;28;20797;-82
2022/04/05 04:44:59;;;;;;;12.02;4.10;;;5.40;99.90;;;;;;5051982;28;20407;-83
2022/04/05 04:47:25;;;;;;;17.23;4.90;;;5.50;99.90;;;;;;5067092;28;20400;-83
2022/04/05 04:49:51;;;;;;;13.73;4.90;;;5.50;99.90;;;;;;5051995;28;20380;-82
2022/04/05 04:52:19;;;;;;;14.27;5.68;;;5.40;99.90;;;;;;5052187;28;20372;-82
2022/04/05 04:54:45;;;;;;;14.95;4.95;;;5.40;99.90;;;;;;5052057;28;20386;-82
2022/04/05 04:57:11;;;;;;;13.43;4.23;;;5.40;99.90;;;;;;5054609;28;20375;-82
2022/04/05 04:59:36;;;;;;;12.77;4.63;;;5.40;99.90;;;;;;5052722;28;20372;-82
2022/04/05 05:02:02;;;;;;;14.37;4.87;;;5.40;99.90;;;;;;5053251;28;20501;-82
2022/04/05 05:04:28;;;;;;;13.82;4.78;;;5.40;99.90;;;;;;5053151;28;20407;-82
2022/04/05 05:06:53;;;;;;;20.80;4.78;;;5.40;99.90;;;;;;5052351;28;20467;-82
2022/04/05 05:09:20;;;;;;;11.55;4.60;;;5.40;99.90;;;;;;5043001;28;20385;-83
2022/04/05 05:11:45;;;;;;;14.52;4.63;;;5.40;99.90;;;;;;5047122;28;20381;-83
2022/04/05 05:14:11;;;;;;;11.68;4.22;;;5.40;99.90;;;;;;5044228;28;20712;-83
2022/04/05 05:16:37;;;;;;;14.80;4.68;;;5.50;99.90;;;;;;5044730;28;20392;-82
2022/04/05 05:19:05;;;;;;;11.63;3.92;;;5.60;99.90;;;;;;5043499;28;20399;-83
2022/04/05 05:21:31;;;;;;;10.60;4.07;;;5.60;99.90;;;;;;5041831;28;20429;-81
2022/04/05 05:23:57;;;;;;;14.23;4.50;;;5.60;99.90;;;;;;5044770;28;20399;-82
2022/04/05 05:26:23;;;;;;;10.77;4.03;;;5.60;99.90;;;;;;5041290;28;20449;-82
2022/04/05 05:28:48;;;;;;;11.40;4.05;;;5.60;99.90;;;;;;5040493;28;20774;-82
2022/04/05 05:31:14;;;;;;;13.00;4.35;;;5.60;99.90;;;;;;5040623;28;20432;-83
2022/04/05 05:33:40;;;;;;;13.93;4.60;;;5.60;99.90;;;;;;5042398;28;20853;-83
2022/04/05 05:36:06;;;;;;;14.00;4.50;;;5.70;99.90;;;;;;5040916;28;20907;-82
2022/04/05 05:38:31;;;;;;;17.85;4.43;;;5.70;99.90;;;;;;5042577;28;20380;-83
2022/04/05 05:40:57;;;;;;;12.93;3.75;;;5.70;99.90;;;;;;5043987;28;20942;-83
2022/04/05 05:43:23;;;;;;;15.53;4.30;;;5.70;99.90;;;;;;5040025;28;20409;-82
2022/04/05 05:45:49;;;;;;;11.00;3.78;;;5.80;99.90;;;;;;5039218;28;20455;-83
2022/04/05 05:48:15;;;;;;;11.32;4.00;;;5.80;99.90;;;;;;5039720;28;20532;-82
2022/04/05 05:50:40;;;;;;;11.60;4.43;;;5.70;99.90;;;;;;5040062;28;20403;-81
2022/04/05 05:53:06;;;;;;;14.43;4.37;;;5.80;99.90;;;;;;5041463;28;20387;-82
2022/04/05 05:55:33;;;;;;;11.63;3.77;;;5.80;99.90;;;;;;5039190;28;20386;-81
2022/04/05 05:57:58;;;;;;;10.38;3.83;;;5.80;99.90;;;;;;5041843;28;20509;-82
2022/04/05 06:00:24;;;;;;;10.43;3.72;;;5.80;99.90;;;;;;5043911;28;20403;-82
2022/04/05 06:02:58;;;;;;;10.95;2.75;;;5.80;99.90;;;;;;5042985;28;20403;-82
2022/04/05 06:05:25;;;;;;;9.40;3.05;;;5.90;99.90;;;;;;5043941;28;20442;-82
2022/04/05 06:07:51;;;;;;;11.82;3.20;;;6.00;99.90;;;;;;5045115;28;20384;-82
2022/04/05 06:10:17;;;;;;;9.70;2.97;;;6.10;99.90;;;;;;5047704;28;20429;-83
2022/04/05 06:12:45;;;;;;;11.27;2.88;;;6.40;99.90;;;;;;5041297;28;20393;-82
2022/04/05 06:15:13;;;;;;;8.32;2.85;;;6.50;99.90;;;;;;5040593;28;20386;-82
2022/04/05 06:17:44;;;;;;;6.60;2.60;;;6.50;99.90;;;;;;5041373;28;20792;-82
2022/04/05 06:20:11;;;;;;;8.40;2.85;;;6.50;99.90;;;;;;5073108;28;20817;-82
2022/04/05 06:22:47;;;;;;;9.05;2.70;;;6.40;99.90;;;;;;5039542;28;20472;-83
2022/04/05 06:25:16;;;;;;;9.90;2.95;;;6.50;99.90;;;;;;5038912;28;20429;-81
2022/04/05 06:27:42;;;;;;;9.63;2.83;;;6.40;99.90;;;;;;5041050;28;20473;-82
2022/04/05 06:30:10;;;;;;;7.97;2.35;;;6.60;99.90;;;;;;5043873;28;20391;-83
2022/04/05 06:32:36;;;;;;;9.35;3.05;;;6.70;99.90;;;;;;5042466;28;20407;-81
2022/04/05 06:35:04;;;;;;;7.82;2.88;;;6.60;99.90;;;;;;5043189;28;20384;-83
2022/04/05 06:37:30;;;;;;;8.13;3.30;;;6.70;99.90;;;;;;5042266;28;20876;-84
2022/04/05 06:39:55;;;;;;;9.20;2.95;;;6.60;99.90;;;;;;5046316;28;20380;-82
2022/04/05 06:42:21;;;;;;;9.75;2.83;;;6.50;99.90;;;;;;5044841;28;20397;-83
2022/04/05 06:44:47;;;;;;;9.35;3.40;;;6.60;99.90;;;;;;5044208;28;20441;-83
2022/04/05 06:47:12;;;;;;;9.32;3.03;;;6.60;99.90;;;;;;5046143;28;20540;-83
2022/04/05 06:49:38;;;;;;;9.33;3.07;;;6.60;99.90;;;;;;5044886;28;20374;-82
2022/04/05 06:52:04;;;;;;;7.65;2.97;;;6.60;99.90;;;;;;5045859;28;20393;-83
2022/04/05 06:54:30;;;;;;;8.57;2.80;;;6.70;99.90;;;;;;5046764;28;20383;-83
2022/04/05 06:56:56;;;;;;;9.80;2.80;;;6.80;99.90;;;;;;5045800;28;20373;-83
2022/04/05 06:59:21;;;;;;;8.23;2.70;;;6.80;99.90;;;;;;5046764;28;20376;-83
2022/04/05 07:01:47;;;;;;;11.37;2.53;;;6.90;99.90;;;;;;5044613;28;20449;-83
2022/04/05 07:04:13;;;;;;;9.98;3.03;;;7.10;99.90;;;;;;5047098;28;20797;-83
2022/04/05 07:06:38;;;;;;;11.73;3.47;;;7.10;99.90;;;;;;5045679;28;20434;-83
2022/04/05 07:09:05;;;;;;;9.60;3.10;;;7.20;99.90;;;;;;5045223;28;20372;-82
2022/04/05 07:11:31;;;;;;;9.10;3.70;;;7.40;99.90;;;;;;5040754;28;20399;-82
2022/04/05 07:13:57;;;;;;;7.78;2.67;;;7.40;99.90;;;;;;5042667;28;20480;-83
2022/04/05 07:16:23;;;;;;;7.88;2.50;;;7.40;99.90;;;;;;5042031;28;20457;-83
2022/04/05 07:18:49;;;;;;;8.38;2.58;;;7.40;99.90;;;;;;5044341;28;20467;-83
2022/04/05 07:21:15;;;;;;;9.07;3.00;;;7.50;99.90;;;;;;5043573;28;20464;-84
2022/04/05 07:23:44;;;;;;;7.85;2.10;;;7.60;99.90;;;;;;5044159;28;20402;-84
2022/04/05 07:26:10;;;;;;;8.18;2.75;;;7.50;99.90;;;;;;5043468;28;20397;-83
2022/04/05 07:28:36;;;;;;;5.88;2.42;;;7.50;99.90;;;;;;5044098;28;20451;-84
2022/04/05 07:31:03;;;;;;;6.40;2.00;;;7.60;99.90;;;;;;5043722;28;20477;-85
2022/04/05 07:33:29;;;;;;;6.03;2.00;;;7.80;99.90;;;;;;5043341;28;20427;-83
2022/04/05 07:35:55;;;;;;;9.07;2.50;;;7.90;99.90;;;;;;5044689;28;20387;-83
2022/04/05 07:38:21;;;;;;;8.07;2.33;;;8.30;99.90;;;;;;5043638;28;20377;-83
2022/04/05 07:40:50;;;;;;;6.30;2.53;;;7.90;99.90;;;;;;5041493;28;20407;-83
2022/04/05 07:43:23;;;;;;;7.18;2.45;;;7.90;99.90;;;;;;5042416;28;20396;-82
2022/04/05 07:45:50;;;;;;;7.80;2.30;;;8.70;99.90;;;;;;5043807;28;20463;-85
2022/04/05 07:48:21;;;;;;;5.77;2.40;;;7.90;99.90;;;;;;5041646;28;20485;-82
2022/04/05 07:50:50;;;;;;;6.07;2.60;;;7.80;99.90;;;;;;5044962;28;20399;-83
2022/04/05 07:53:17;;;;;;;7.53;2.50;;;8.30;99.90;;;;;;5046817;28;20375;-83
2022/04/05 07:55:42;;;;;;;8.68;2.50;;;8.10;99.90;;;;;;5040278;28;20906;-82
2022/04/05 07:58:08;;;;;;;7.43;2.58;;;8.00;99.90;;;;;;5043434;28;20383;-84
2022/04/05 08:00:34;;;;;;;9.50;2.70;;;8.00;99.90;;;;;;5040544;28;20397;-82
2022/04/05 08:03:04;;;;;;;5.75;2.17;;;8.20;99.90;;;;;;5041105;28;20423;-83
2022/04/05 08:05:29;;;;;;;6.32;2.83;;;8.20;99.90;;;;;;5042321;28;20758;-82
2022/04/05 08:07:55;;;;;;;7.47;2.65;;;8.20;99.90;;;;;;5039829;28;20880;-82
2022/04/05 08:10:22;;;;;;;6.97;2.45;;;8.50;99.90;;;;;;5039958;28;20471;-82
2022/04/05 08:12:51;;;;;;;7.50;2.47;;;8.60;99.90;;;;;;5041860;28;20389;-84
2022/04/05 08:15:23;;;;;;;6.50;2.42;;;;;;;;;;5041624;28;20418;-83
2022/04/05 08:17:50;;;;;;;7.63;2.37;;;8.70;99.90;;;;;;5041601;28;20373;-83
2022/04/05 08:20:19;;;;;;;6.40;2.33;;;;;;;;;;5042277;28;20378;-83
2022/04/05 08:22:47;;;;;;;7.20;2.45;;;9.00;99.90;;;;;;5041001;28;20449;-83
2022/04/05 08:25:15;;;;;;;7.57;2.43;;;;;;;;;;5041129;28;20774;-82
2022/04/05 08:27:48;;;;;;;7.03;2.55;;;8.90;99.90;;;;;;5040233;28;20384;-83
2022/04/05 08:30:17;;;;;;;5.77;1.87;;;9.00;99.90;;;;;;5041233;28;20421;-83
2022/04/05 08:32:44;;;;;;;7.57;2.33;;;9.00;99.90;;;;;;5039407;28;20441;-83
2022/04/05 08:35:11;;;;;;;7.85;2.35;;;;;;;;;;5039347;28;20382;-83
2022/04/05 08:37:37;;;;;;;8.18;3.40;;;8.90;99.90;;;;;;5040889;28;20400;-84
2022/04/05 08:40:17;;;;;;;6.82;2.38;;;8.70;99.90;;;;;;5040819;28;20382;-85
2022/04/05 08:42:46;;;;;;;8.30;2.90;;;8.70;99.90;;;;;;5041691;28;20397;-83
2022/04/05 08:45:13;;;;;;;7.00;2.87;;;8.70;99.90;;;;;;5040408;28;20926;-83
2022/04/05 08:47:59;;;;;;;8.32;2.20;;;8.90;99.90;;;;;;5039710;28;20423;-84
2022/04/05 08:50:26;;;;;;;8.45;2.55;;;8.60;99.90;;;;;;5042020;28;20407;-83
2022/04/05 08:52:54;;;;;;;10.68;2.83;;;8.80;99.90;;;;;;5043276;28;20420;-84
2022/04/05 08:55:20;;;;;;;7.20;2.47;;;8.70;99.90;;;;;;5039569;28;20389;-83
2022/04/05 08:57:46;;;;;;;9.23;2.58;;;8.60;99.90;;;;;;5041159;28;20478;-85
2022/04/05 09:00:15;;;;;;;7.45;2.33;;;8.80;99.90;;;;;;5040792;28;20476;-83
2022/04/05 09:02:58;;;;;;;8.38;2.47;;;8.90;99.90;;;;;;5041634;28;20896;-83
2022/04/05 09:05:36;;;;;;;8.52;2.90;;;9.00;99.90;;;;;;5042974;28;20397;-82
2022/04/05 09:08:22;;;;;;;12.18;2.55;;;9.10;99.90;;;;;;5037993;28;20471;-83
2022/04/05 09:11:14;;;;;;;9.37;2.30;;;9.30;99.90;;;;;;5043027;28;20387;-84
2022/04/05 09:13:40;;;;;;;8.07;2.40;;;9.40;99.90;;;;;;5037841;28;20373;-83
2022/04/05 09:16:08;;;;;;;9.27;3.13;;;9.30;99.90;;;;;;5041744;28;20396;-84
2022/04/05 09:18:40;;;;;;;9.60;2.80;;;10.00;99.90;;;;;;5040102;28;20748;-84
2022/04/05 09:21:10;;;;;;;6.90;2.38;;;10.20;99.90;;;;;;5041627;28;20389;-84
2022/04/05 09:23:39;;;;;;;7.45;2.70;;;10.00;99.90;;;;;;5041750;28;20748;-85
2022/04/05 09:26:07;;;;;;;7.05;2.10;;;9.80;99.90;;;;;;5046013;28;20444;-83
2022/04/05 09:28:35;;;;;;;8.60;2.42;;;9.80;99.90;;;;;;5038617;28;20461;-83
2022/04/05 09:31:06;;;;;;;6.80;2.53;;;10.30;99.90;;;;;;5044480;28;20482;-86
2022/04/05 09:33:42;;;;;;;13.75;2.65;;;9.40;99.90;;;;;;5039958;28;20425;-85
2022/04/05 09:36:15;;;;;;;9.93;2.70;;;9.60;99.90;;;;;;5039439;28;20397;-85
2022/04/05 09:38:48;;;;;;;7.80;2.60;;;8.80;99.90;;;;;;5040700;28;20396;-85
2022/04/05 09:41:36;;;;;;;7.90;2.50;;;8.90;99.90;;;;;;5040341;28;20415;-84
2022/04/05 09:44:07;;;;;;;7.43;2.67;;;8.90;99.90;;;;;;5039591;28;20405;-86
2022/04/05 09:46:37;;;;;;;6.57;2.17;;;9.10;99.90;;;;;;5037704;28;20389;-84
2022/04/05 09:49:12;;;;;;;5.35;2.10;;;8.80;99.90;;;;;;5039275;28;20919;-84
2022/04/05 09:51:45;;;;;;;7.32;2.10;;;8.90;99.90;;;;;;5040015;28;20483;-84
2022/04/05 09:54:31;;;;;;;7.10;2.05;;;9.80;99.90;;;;;;5039841;28;21117;-83
2022/04/05 09:57:06;;;;;;;6.13;1.90;;;9.60;99.90;;;;;;5021098;28;20399;-82
2022/04/05 09:59:46;;;;;;;5.13;2.00;;;10.00;99.90;;;;;;5041966;28;20379;-85
2022/04/05 10:05:27;;;;;;;7.28;2.10;;;10.20;99.90;;;;;;5056076;27;21376;-86
2022/04/05 10:08:00;;;;;;;4.87;2.00;;;10.10;99.90;;;;;;5044070;28;20473;-85
2022/04/05 10:10:27;;;;;;;5.15;2.15;;;10.30;99.90;;;;;;5046175;28;20482;-85
2022/04/05 10:12:53;;;;;;;6.93;2.28;;;10.30;99.90;;;;;;5042732;28;20426;-83
2022/04/05 10:15:21;;;;;;;7.40;2.47;;;11.30;99.90;;;;;;5047595;28;20425;-85
2022/04/05 10:17:51;;;;;;;6.05;2.20;;;10.60;99.90;;;;;;5041937;28;20379;-84
2022/04/05 10:20:18;;;;;;;8.60;2.10;;;10.50;99.90;;;;;;5041176;28;20401;-84
2022/04/05 10:22:51;;;;;;;5.43;2.00;;;10.10;99.90;;;;;;5047688;28;20397;-84
2022/04/05 10:25:17;;;;;;;6.07;2.10;;;10.10;99.90;;;;;;5041867;28;21219;-83
2022/04/05 10:27:43;;;;;;;6.40;2.20;;;10.30;99.90;;;;;;5043934;28;20406;-85
2022/04/05 10:30:17;;;;;;;9.25;2.45;;;10.50;99.90;;;;;;5042792;28;20475;-84
2022/04/05 10:33:11;;;;;;;6.37;2.03;;;10.50;99.90;;;;;;5043037;28;20464;-84
2022/04/05 10:35:42;;;;;;;4.55;2.00;;;10.50;99.90;;;;;;5041816;28;20447;-83
2022/04/05 10:38:15;;;;;;;5.50;1.98;;;10.90;99.90;;;;;;5044662;28;20423;-84
2022/04/05 10:40:41;;;;;;;5.55;2.20;;;10.80;99.90;;;;;;5045853;28;20384;-84
2022/04/05 10:43:18;;;;;;;5.97;2.10;;;10.90;99.90;;;;;;5044139;28;20460;-84
2022/04/05 10:45:45;;;;;;;4.75;1.70;;;11.40;99.90;;;;;;5044511;28;20403;-84
2022/04/05 10:48:18;;;;;;;5.88;2.28;;;11.90;99.90;;;;;;5045510;28;20402;-85
2022/04/05 10:50:47;;;;;;;6.50;2.20;;;11.60;99.90;;;;;;5046130;28;20397;-83
2022/04/05 10:53:29;;;;;;;5.50;1.92;;;11.20;99.90;;;;;;5044201;28;20390;-84
2022/04/05 10:56:04;;;;;;;4.68;1.80;;;11.20;99.90;;;;;;5048567;28;20415;-84
2022/04/05 10:58:30;;;;;;;4.40;1.67;;;11.10;99.90;;;;;;5072638;28;20502;-84
2022/04/05 11:01:18;;;;;;;5.63;1.90;;;11.00;99.90;;;;;;5042622;28;20387;-84
2022/04/05 11:04:16;;;;;;;5.73;2.17;;;10.60;99.90;;;;;;5048552;28;20402;-83
2022/04/05 11:07:05;;;;;;;10.40;1.83;;;10.40;99.90;;;;;;5043105;28;20413;-84
2022/04/05 11:09:44;;;;;;;6.97;1.58;;;10.80;99.90;;;;;;5048243;28;20394;-85
2022/04/05 11:12:30;;;;;;;5.47;1.80;;;10.30;99.90;;;;;;5044231;28;20967;-84
2022/04/05 11:15:03;;;;;;;6.82;2.05;;;10.40;99.90;;;;;;5044281;28;20396;-85
2022/04/05 11:17:32;;;;;;;6.55;1.95;;;10.30;99.90;;;;;;5045999;28;20403;-85
2022/04/05 11:19:59;;;;;;;6.60;1.88;;;10.20;99.90;;;;;;5047132;28;20904;-84
2022/04/05 11:22:34;;;;;;;6.80;2.20;;;10.40;99.90;;;;;;5045188;28;20383;-83
2022/04/05 11:25:08;;;;;;;4.75;1.75;;;10.80;99.90;;;;;;5043084;28;20495;-84
2022/04/05 11:27:53;;;;;;;5.82;1.75;;;10.80;99.90;;;;;;5042438;28;20381;-84
2022/04/05 11:30:27;;;;;;;6.97;1.77;;;11.70;99.90;;;;;;5074413;28;21003;-83
2022/04/05 11:33:05;;;;;;;6.15;1.55;;;;;;;;;;5041121;28;20385;-86
2022/04/05 11:35:34;;;;;;;3.72;1.60;;;;;;;;;;5041363;28;20401;-84
2022/04/05 11:38:00;;;;;;;6.28;1.80;;;;;;;;;;5045836;28;20395;-84
2022/04/05 11:40:26;;;;;;;4.80;1.90;;;;;;;;;;5052664;28;20442;-85
2022/04/05 11:42:53;;;;;;;5.15;1.90;;;;;;;;;;5042715;28;20387;-85
2022/04/05 11:45:20;;;;;;;6.47;2.00;;;;;;;;;;5043231;28;20409;-84
2022/04/05 11:47:52;;;;;;;4.95;1.80;;;;;;;;;;5044166;28;20806;-83
2022/04/05 11:50:20;;;;;;;4.60;1.83;;;;;;;;;;5043967;28;20482;-84
2022/04/05 11:52:46;;;;;;;7.15;2.25;;;;;;;;;;5045408;28;20419;-83
2022/04/05 11:58:03;;;;;;;5.05;1.73;;;;;;;;;;5042802;28;20422;-85
2022/04/05 12:00:30;;;;;;;5.67;1.80;;;;;;;;;;5043538;28;20421;-83
2022/04/05 12:03:10;;;;;;;4.47;1.85;;;;;;;;;;5044103;28;20377;-83
2022/04/05 12:05:46;;;;;;;7.23;2.17;;;;;;;;;;5040071;28;20409;-83
2022/04/05 12:08:13;;;;;;;4.10;1.80;;;;;;;;;;5044489;28;20399;-84
2022/04/05 12:10:40;;;;;;;3.28;1.50;;;;;;;;;;5040864;28;20403;-84
2022/04/05 12:13:06;;;;;;;4.80;1.80;;;;;;;;;;5042742;28;20374;-85
2022/04/05 12:15:33;;;;;;;3.80;1.67;;;;;;;;;;5047471;28;20379;-84
2022/04/05 12:18:18;;;;;;;4.63;1.70;;;;;;;;;;5041294;28;20376;-85
2022/04/05 12:20:54;;;;;;;5.90;1.98;;;;;;;;;;5038860;28;20475;-83
2022/04/05 12:23:21;;;;;;;5.15;1.80;;;;;;;;;;5041601;28;20384;-84
2022/04/05 12:26:03;;;;;;;5.50;1.90;;;;;;;;;;5040414;28;20384;-85
2022/04/05 12:28:29;;;;;;;5.18;1.95;;;;;;;;;;5040996;28;20379;-84
2022/04/05 12:31:03;;;;;;;6.15;2.10;;;;;;;;;;5045551;28;20427;-84
2022/04/05 12:33:29;;;;;;;5.00;2.10;;;;;;;;;;5044604;28;20392;-83
2022/04/05 12:35:56;;;;;;;4.55;2.10;;;;;;;;;;5042203;28;20914;-84
2022/04/05 12:38:22;;;;;;;5.85;1.80;;;;;;;;;;5046620;28;20879;-84
2022/04/05 12:40:48;;;;;;;5.07;1.98;;;;;;;;;;5043240;28;20852;-84
2022/04/05 12:43:19;;;;;;;7.15;1.80;;;11.40;99.90;;;;;;5041112;28;20384;-84
2022/04/05 12:45:46;;;;;;;5.55;2.08;;;11.50;99.90;;;;;;5044286;28;20462;-85
2022/04/05 12:48:12;;;;;;;4.60;2.15;;;11.80;99.90;;;;;;5042808;28;20439;-83
2022/04/05 12:50:49;;;;;;;7.60;2.03;;;12.00;99.90;;;;;;5043349;28;20829;-84
2022/04/05 12:53:37;;;;;;;6.10;2.20;;;12.10;99.60;;;;;;5050146;28;20388;-84
2022/04/05 12:56:13;;;;;;;4.35;1.88;;;12.30;99.90;;;;;;5051124;28;20395;-85
2022/04/05 12:58:40;;;;;;;5.45;1.70;;;12.30;99.90;;;;;;5052163;28;20979;-84
2022/04/05 13:01:21;;;;;;;6.47;1.92;;;12.30;99.90;;;;;;5052226;28;20387;-84
2022/04/05 13:03:47;;;;;;;6.75;1.95;;;12.10;99.90;;;;;;5073206;28;20403;-85
2022/04/05 13:06:24;;;;;;;5.93;2.00;;;12.00;99.90;;;;;;5054127;28;20730;-84
2022/04/05 13:08:52;;;;;;;6.30;1.53;;;11.80;99.90;;;;;;5068498;28;20407;-85
2022/04/05 13:11:26;;;;;;;7.20;1.90;;;11.60;99.90;;;;;;5071117;28;20376;-83
2022/04/05 13:14:12;;;;;;;4.05;1.67;;;11.40;99.90;;;;;;5068619;28;20376;-83